sensor_id;sensor_type;location;lat;lon;timestamp;pressure;altitude;pressure_sealevel;temperature;humidity
38616;BME280;24370;51.986;4.666;2023-04-10T00:00:06;102101.34;;;17.88;39.44
38616;BME280;24370;51.986;4.666;2023-04-10T00:02:32;102104.66;;;17.56;39.52
38616;BME280;24370;51.986;4.666;2023-04-10T00:04:59;102099.38;;;17.56;39.38
38616;BME280;24370;51.986;4.666;2023-04-10T00:07:24;102087.81;;;18.04;39.12
38616;BME280;24370;51.986;4.666;2023-04-10T00:09:50;102092.28;;;18.02;39.02
38616;BME280;24370;51.986;4.666;2023-04-10T00:12:16;102084.72;;;17.81;40.09
38616;BME280;24370;51.986;4.666;2023-04-10T00:14:41;102075.19;;;17.74;39.67
38616;BME280;24370;51.986;4.666;2023-04-10T00:17:07;102077.72;;;17.34;39.87
38616;BME280;24370;51.986;4.666;2023-04-10T00:19:32;102072.53;;;17.74;39.53
38616;BME280;24370;51.986;4.666;2023-04-10T00:21:58;102071.25;;;17.52;39.75
38616;BME280;24370;51.986;4.666;2023-04-10T00:24:23;102066.38;;;17.75;39.61
38616;BME280;24370;51.986;4.666;2023-04-10T00:26:49;102068.13;;;16.76;41.15
38616;BME280;24370;51.986;4.666;2023-04-10T00:29:14;102075.09;;;17.35;40.35
38616;BME280;24370;51.986;4.666;2023-04-10T00:31:40;102073.63;;;17.19;40.69
38616;BME280;24370;51.986;4.666;2023-04-10T00:34:05;102071.00;;;17.64;40.38
38616;BME280;24370;51.986;4.666;2023-04-10T00:36:31;102074.06;;;16.91;41.50
38616;BME280;24370;51.986;4.666;2023-04-10T00:38:57;102072.31;;;17.41;40.73
38616;BME280;24370;51.986;4.666;2023-04-10T00:41:24;102064.19;;;17.04;40.40
38616;BME280;24370;51.986;4.666;2023-04-10T00:43:53;102060.72;;;17.00;41.13
38616;BME280;24370;51.986;4.666;2023-04-10T00:46:19;102058.50;;;17.72;40.01
38616;BME280;24370;51.986;4.666;2023-04-10T00:48:44;102060.47;;;17.14;40.40
38616;BME280;24370;51.986;4.666;2023-04-10T00:51:10;102055.66;;;18.24;38.92
38616;BME280;24370;51.986;4.666;2023-04-10T00:53:36;102049.03;;;18.04;38.76
38616;BME280;24370;51.986;4.666;2023-04-10T00:56:01;102046.38;;;18.04;38.85
38616;BME280;24370;51.986;4.666;2023-04-10T00:58:27;102046.25;;;17.23;40.08
38616;BME280;24370;51.986;4.666;2023-04-10T01:00:54;102044.63;;;17.59;39.70
38616;BME280;24370;51.986;4.666;2023-04-10T01:03:20;102035.28;;;16.94;41.03
38616;BME280;24370;51.986;4.666;2023-04-10T01:06:29;102029.69;;;17.11;40.84
38616;BME280;24370;51.986;4.666;2023-04-10T01:11:59;102021.25;;;16.91;41.49
38616;BME280;24370;51.986;4.666;2023-04-10T01:14:38;102016.56;;;16.54;42.59
38616;BME280;24370;51.986;4.666;2023-04-10T01:17:10;102012.47;;;16.90;41.47
38616;BME280;24370;51.986;4.666;2023-04-10T01:20:03;102008.97;;;16.90;41.91
38616;BME280;24370;51.986;4.666;2023-04-10T01:28:00;101999.97;;;16.49;42.09
38616;BME280;24370;51.986;4.666;2023-04-10T01:30:31;101997.66;;;16.80;41.81
38616;BME280;24370;51.986;4.666;2023-04-10T01:33:00;101996.97;;;16.69;42.52
38616;BME280;24370;51.986;4.666;2023-04-10T01:35:28;101999.69;;;17.16;41.64
38616;BME280;24370;51.986;4.666;2023-04-10T01:37:56;101990.47;;;16.88;41.89
38616;BME280;24370;51.986;4.666;2023-04-10T01:40:25;101981.84;;;17.28;41.57
38616;BME280;24370;51.986;4.666;2023-04-10T01:42:53;101987.78;;;16.93;41.94
38616;BME280;24370;51.986;4.666;2023-04-10T01:45:22;101981.38;;;16.55;42.98
38616;BME280;24370;51.986;4.666;2023-04-10T01:47:50;101986.97;;;16.88;42.31
38616;BME280;24370;51.986;4.666;2023-04-10T01:50:16;101987.25;;;16.18;43.74
38616;BME280;24370;51.986;4.666;2023-04-10T01:52:43;101978.22;;;16.84;42.72
38616;BME280;24370;51.986;4.666;2023-04-10T01:55:09;101976.78;;;16.66;42.90
38616;BME280;24370;51.986;4.666;2023-04-10T01:57:36;101976.09;;;17.05;41.85
38616;BME280;24370;51.986;4.666;2023-04-10T02:00:05;101973.63;;;17.42;41.39
38616;BME280;24370;51.986;4.666;2023-04-10T02:02:32;101965.38;;;16.64;42.66
38616;BME280;24370;51.986;4.666;2023-04-10T02:04:57;101987.84;;;16.90;42.51
38616;BME280;24370;51.986;4.666;2023-04-10T02:07:48;101976.59;;;16.77;42.95
38616;BME280;24370;51.986;4.666;2023-04-10T02:10:22;101975.53;;;16.89;42.61
38616;BME280;24370;51.986;4.666;2023-04-10T02:12:54;101968.28;;;17.00;41.93
38616;BME280;24370;51.986;4.666;2023-04-10T02:15:25;101974.50;;;16.98;42.41
38616;BME280;24370;51.986;4.666;2023-04-10T02:17:51;101968.91;;;17.15;42.07
38616;BME280;24370;51.986;4.666;2023-04-10T02:20:18;101976.38;;;17.36;41.42
38616;BME280;24370;51.986;4.666;2023-04-10T02:22:44;101976.09;;;16.55;42.92
38616;BME280;24370;51.986;4.666;2023-04-10T02:25:10;101971.16;;;16.86;42.34
38616;BME280;24370;51.986;4.666;2023-04-10T02:27:37;101972.94;;;16.86;42.06
38616;BME280;24370;51.986;4.666;2023-04-10T02:30:06;101967.66;;;16.84;42.56
38616;BME280;24370;51.986;4.666;2023-04-10T02:32:31;101967.16;;;16.62;43.32
38616;BME280;24370;51.986;4.666;2023-04-10T02:34:57;101964.84;;;16.95;41.96
38616;BME280;24370;51.986;4.666;2023-04-10T02:37:23;101973.06;;;16.78;42.76
38616;BME280;24370;51.986;4.666;2023-04-10T02:39:48;101968.34;;;16.97;42.46
38616;BME280;24370;51.986;4.666;2023-04-10T02:42:14;101972.56;;;17.06;42.19
38616;BME280;24370;51.986;4.666;2023-04-10T02:44:40;101980.69;;;16.95;42.41
38616;BME280;24370;51.986;4.666;2023-04-10T02:47:05;101972.59;;;17.04;41.63
38616;BME280;24370;51.986;4.666;2023-04-10T02:49:32;101974.94;;;17.20;41.55
38616;BME280;24370;51.986;4.666;2023-04-10T02:51:58;101986.06;;;17.37;41.27
38616;BME280;24370;51.986;4.666;2023-04-10T02:54:24;101987.25;;;17.21;41.27
38616;BME280;24370;51.986;4.666;2023-04-10T02:56:49;101989.81;;;17.27;41.62
38616;BME280;24370;51.986;4.666;2023-04-10T02:59:15;101987.56;;;17.05;41.79
38616;BME280;24370;51.986;4.666;2023-04-10T03:01:40;101974.50;;;16.98;42.20
38616;BME280;24370;51.986;4.666;2023-04-10T03:04:06;101981.88;;;17.25;41.16
38616;BME280;24370;51.986;4.666;2023-04-10T03:06:31;101975.78;;;17.23;41.27
38616;BME280;24370;51.986;4.666;2023-04-10T03:08:57;101969.41;;;17.32;40.79
38616;BME280;24370;51.986;4.666;2023-04-10T03:11:22;101971.47;;;17.18;41.20
38616;BME280;24370;51.986;4.666;2023-04-10T03:13:48;101967.41;;;17.01;41.80
38616;BME280;24370;51.986;4.666;2023-04-10T03:16:14;101969.16;;;17.02;41.40
38616;BME280;24370;51.986;4.666;2023-04-10T03:18:41;101964.50;;;16.63;42.30
38616;BME280;24370;51.986;4.666;2023-04-10T03:21:07;101960.25;;;17.06;41.54
38616;BME280;24370;51.986;4.666;2023-04-10T03:23:32;101952.53;;;16.95;41.54
38616;BME280;24370;51.986;4.666;2023-04-10T03:25:57;101956.47;;;16.71;41.48
38616;BME280;24370;51.986;4.666;2023-04-10T03:28:23;101958.56;;;16.51;42.30
38616;BME280;24370;51.986;4.666;2023-04-10T03:30:51;101951.44;;;16.56;42.55
38616;BME280;24370;51.986;4.666;2023-04-10T03:33:16;101955.66;;;16.66;41.58
38616;BME280;24370;51.986;4.666;2023-04-10T03:35:44;101951.03;;;16.81;41.56
38616;BME280;24370;51.986;4.666;2023-04-10T03:38:10;101943.38;;;16.65;41.15
38616;BME280;24370;51.986;4.666;2023-04-10T03:40:36;101940.38;;;16.84;41.60
38616;BME280;24370;51.986;4.666;2023-04-10T03:43:01;101938.09;;;17.13;40.37
38616;BME280;24370;51.986;4.666;2023-04-10T03:45:27;101920.56;;;17.09;40.65
38616;BME280;24370;51.986;4.666;2023-04-10T03:47:52;101922.34;;;17.07;41.05
38616;BME280;24370;51.986;4.666;2023-04-10T03:50:18;101924.09;;;17.08;40.34
38616;BME280;24370;51.986;4.666;2023-04-10T03:52:43;101922.38;;;16.59;41.30
38616;BME280;24370;51.986;4.666;2023-04-10T03:55:08;101915.06;;;16.73;41.33
38616;BME280;24370;51.986;4.666;2023-04-10T03:57:34;101911.81;;;16.59;41.32
38616;BME280;24370;51.986;4.666;2023-04-10T04:00:00;101918.72;;;17.15;40.69
38616;BME280;24370;51.986;4.666;2023-04-10T04:02:25;101904.78;;;17.06;40.55
38616;BME280;24370;51.986;4.666;2023-04-10T04:04:51;101914.72;;;16.43;41.63
38616;BME280;24370;51.986;4.666;2023-04-10T04:07:16;101905.31;;;17.22;39.83
38616;BME280;24370;51.986;4.666;2023-04-10T04:09:41;101907.94;;;17.24;40.23
38616;BME280;24370;51.986;4.666;2023-04-10T04:12:07;101914.72;;;17.37;39.53
38616;BME280;24370;51.986;4.666;2023-04-10T04:14:32;101917.47;;;17.33;39.51
38616;BME280;24370;51.986;4.666;2023-04-10T04:16:58;101897.22;;;17.72;38.93
38616;BME280;24370;51.986;4.666;2023-04-10T04:19:23;101905.50;;;17.13;40.19
38616;BME280;24370;51.986;4.666;2023-04-10T04:21:49;101894.91;;;17.96;38.54
38616;BME280;24370;51.986;4.666;2023-04-10T04:24:15;101897.75;;;17.48;39.42
38616;BME280;24370;51.986;4.666;2023-04-10T04:26:40;101893.75;;;17.69;39.08
38616;BME280;24370;51.986;4.666;2023-04-10T04:29:05;101889.47;;;17.63;39.23
38616;BME280;24370;51.986;4.666;2023-04-10T04:31:31;101887.13;;;17.51;39.35
38616;BME280;24370;51.986;4.666;2023-04-10T04:34:00;101879.03;;;17.57;39.03
38616;BME280;24370;51.986;4.666;2023-04-10T04:36:26;101880.09;;;17.50;39.41
38616;BME280;24370;51.986;4.666;2023-04-10T04:38:52;101878.31;;;17.09;39.78
38616;BME280;24370;51.986;4.666;2023-04-10T04:41:18;101883.41;;;17.19;39.92
38616;BME280;24370;51.986;4.666;2023-04-10T04:43:43;101873.78;;;17.16;39.75
38616;BME280;24370;51.986;4.666;2023-04-10T04:46:09;101865.41;;;17.75;38.92
38616;BME280;24370;51.986;4.666;2023-04-10T04:48:34;101866.50;;;17.65;39.27
38616;BME280;24370;51.986;4.666;2023-04-10T04:51:00;101866.22;;;17.77;38.68
38616;BME280;24370;51.986;4.666;2023-04-10T04:53:26;101866.59;;;16.77;40.26
38616;BME280;24370;51.986;4.666;2023-04-10T04:55:51;101860.38;;;17.24;39.49
38616;BME280;24370;51.986;4.666;2023-04-10T04:58:17;101865.16;;;16.61;40.94
38616;BME280;24370;51.986;4.666;2023-04-10T05:00:42;101864.00;;;17.20;40.00
38616;BME280;24370;51.986;4.666;2023-04-10T05:03:07;101872.63;;;17.28;39.97
38616;BME280;24370;51.986;4.666;2023-04-10T05:05:33;101863.75;;;17.30;39.03
38616;BME280;24370;51.986;4.666;2023-04-10T05:07:58;101869.53;;;15.53;42.65
38616;BME280;24370;51.986;4.666;2023-04-10T05:10:23;101857.78;;;17.22;40.01
38616;BME280;24370;51.986;4.666;2023-04-10T05:12:49;101865.66;;;17.24;39.86
38616;BME280;24370;51.986;4.666;2023-04-10T05:15:15;101857.16;;;17.52;39.19
38616;BME280;24370;51.986;4.666;2023-04-10T05:17:40;101860.66;;;17.52;39.51
38616;BME280;24370;51.986;4.666;2023-04-10T05:20:06;101857.88;;;17.57;39.04
38616;BME280;24370;51.986;4.666;2023-04-10T05:22:31;101866.28;;;16.48;41.56
38616;BME280;24370;51.986;4.666;2023-04-10T05:24:58;101872.16;;;17.50;39.75
38616;BME280;24370;51.986;4.666;2023-04-10T05:27:25;101868.47;;;17.57;39.64
38616;BME280;24370;51.986;4.666;2023-04-10T05:29:50;101863.44;;;17.44;39.87
38616;BME280;24370;51.986;4.666;2023-04-10T05:32:15;101864.00;;;17.20;40.29
38616;BME280;24370;51.986;4.666;2023-04-10T05:34:41;101872.38;;;16.98;40.08
38616;BME280;24370;51.986;4.666;2023-04-10T05:37:06;101873.53;;;17.66;39.31
38616;BME280;24370;51.986;4.666;2023-04-10T05:39:33;101863.56;;;17.77;39.05
38616;BME280;24370;51.986;4.666;2023-04-10T05:41:58;101873.00;;;17.52;39.88
38616;BME280;24370;51.986;4.666;2023-04-10T05:44:23;101876.63;;;17.48;39.67
38616;BME280;24370;51.986;4.666;2023-04-10T05:46:49;101869.13;;;16.35;41.67
38616;BME280;24370;51.986;4.666;2023-04-10T05:49:14;101869.75;;;17.39;39.95
38616;BME280;24370;51.986;4.666;2023-04-10T05:51:41;101865.81;;;16.22;42.33
38616;BME280;24370;51.986;4.666;2023-04-10T05:54:06;101855.34;;;16.18;42.35
38616;BME280;24370;51.986;4.666;2023-04-10T05:56:31;101855.34;;;16.66;41.78
38616;BME280;24370;51.986;4.666;2023-04-10T05:58:57;101853.94;;;16.95;41.93
38616;BME280;24370;51.986;4.666;2023-04-10T06:01:22;101848.88;;;16.83;41.95
38616;BME280;24370;51.986;4.666;2023-04-10T06:03:47;101847.63;;;17.04;41.84
38616;BME280;24370;51.986;4.666;2023-04-10T06:06:13;101853.00;;;16.98;42.09
38616;BME280;24370;51.986;4.666;2023-04-10T06:08:38;101839.69;;;16.08;43.66
38616;BME280;24370;51.986;4.666;2023-04-10T06:11:04;101836.53;;;16.85;42.46
38616;BME280;24370;51.986;4.666;2023-04-10T06:13:30;101828.47;;;17.33;41.26
38616;BME280;24370;51.986;4.666;2023-04-10T06:15:56;101833.56;;;17.02;41.50
38616;BME280;24370;51.986;4.666;2023-04-10T06:18:22;101829.25;;;16.51;42.72
38616;BME280;24370;51.986;4.666;2023-04-10T06:20:47;101828.84;;;16.72;41.88
38616;BME280;24370;51.986;4.666;2023-04-10T06:23:12;101820.34;;;16.09;43.19
38616;BME280;24370;51.986;4.666;2023-04-10T06:25:38;101818.38;;;15.68;43.20
38616;BME280;24370;51.986;4.666;2023-04-10T06:28:04;101813.13;;;16.66;41.80
38616;BME280;24370;51.986;4.666;2023-04-10T06:30:29;101806.94;;;16.22;42.76
38616;BME280;24370;51.986;4.666;2023-04-10T06:32:55;101799.38;;;16.03;43.03
38616;BME280;24370;51.986;4.666;2023-04-10T06:35:21;101796.47;;;16.64;41.79
38616;BME280;24370;51.986;4.666;2023-04-10T06:37:46;101784.50;;;16.88;41.46
38616;BME280;24370;51.986;4.666;2023-04-10T06:40:13;101791.19;;;16.17;42.68
38616;BME280;24370;51.986;4.666;2023-04-10T06:42:38;101787.66;;;16.65;41.60
38616;BME280;24370;51.986;4.666;2023-04-10T06:45:06;101781.91;;;16.87;41.42
38616;BME280;24370;51.986;4.666;2023-04-10T06:47:31;101780.25;;;17.61;39.83
38616;BME280;24370;51.986;4.666;2023-04-10T06:49:57;101770.22;;;17.39;40.50
38616;BME280;24370;51.986;4.666;2023-04-10T06:52:22;101770.22;;;17.39;40.58
38616;BME280;24370;51.986;4.666;2023-04-10T06:54:48;101763.41;;;17.29;40.60
38616;BME280;24370;51.986;4.666;2023-04-10T06:57:13;101757.34;;;17.24;41.02
38616;BME280;24370;51.986;4.666;2023-04-10T06:59:38;101760.38;;;17.44;39.84
38616;BME280;24370;51.986;4.666;2023-04-10T07:02:04;101754.38;;;17.00;40.70
38616;BME280;24370;51.986;4.666;2023-04-10T07:04:30;101754.75;;;17.96;39.49
38616;BME280;24370;51.986;4.666;2023-04-10T07:06:55;101749.03;;;18.11;39.69
38616;BME280;24370;51.986;4.666;2023-04-10T07:09:21;101753.00;;;17.95;39.32
38616;BME280;24370;51.986;4.666;2023-04-10T07:11:46;101748.53;;;18.30;39.10
38616;BME280;24370;51.986;4.666;2023-04-10T07:14:12;101744.56;;;18.46;39.25
38616;BME280;24370;51.986;4.666;2023-04-10T07:16:37;101744.34;;;17.87;39.32
38616;BME280;24370;51.986;4.666;2023-04-10T07:19:06;101729.91;;;18.64;38.25
38616;BME280;24370;51.986;4.666;2023-04-10T07:21:31;101732.94;;;18.80;38.40
38616;BME280;24370;51.986;4.666;2023-04-10T07:23:57;101726.34;;;18.95;38.45
38616;BME280;24370;51.986;4.666;2023-04-10T07:26:22;101724.38;;;19.02;37.94
38616;BME280;24370;51.986;4.666;2023-04-10T07:28:48;101731.84;;;17.95;39.48
38616;BME280;24370;51.986;4.666;2023-04-10T07:31:13;101717.50;;;19.25;37.62
38616;BME280;24370;51.986;4.666;2023-04-10T07:33:38;101722.50;;;18.76;38.53
38616;BME280;24370;51.986;4.666;2023-04-10T07:36:05;101715.25;;;18.82;38.31
38616;BME280;24370;51.986;4.666;2023-04-10T07:38:31;101715.13;;;19.69;36.36
38616;BME280;24370;51.986;4.666;2023-04-10T07:40:57;101711.84;;;18.77;37.85
38616;BME280;24370;51.986;4.666;2023-04-10T07:43:23;101711.34;;;19.23;37.28
38616;BME280;24370;51.986;4.666;2023-04-10T07:45:49;101708.75;;;18.93;37.50
38616;BME280;24370;51.986;4.666;2023-04-10T07:48:14;101706.66;;;18.74;37.85
38616;BME280;24370;51.986;4.666;2023-04-10T07:50:39;101697.09;;;19.54;36.99
38616;BME280;24370;51.986;4.666;2023-04-10T07:53:05;101690.06;;;19.78;36.49
38616;BME280;24370;51.986;4.666;2023-04-10T07:55:41;101688.66;;;20.18;36.02
38616;BME280;24370;51.986;4.666;2023-04-10T07:58:07;101683.22;;;18.92;37.18
38616;BME280;24370;51.986;4.666;2023-04-10T08:00:33;101687.91;;;19.64;36.22
38616;BME280;24370;51.986;4.666;2023-04-10T08:02:58;101687.97;;;19.36;36.21
38616;BME280;24370;51.986;4.666;2023-04-10T08:05:24;101675.56;;;19.09;36.57
38616;BME280;24370;51.986;4.666;2023-04-10T08:07:50;101676.97;;;19.73;36.43
38616;BME280;24370;51.986;4.666;2023-04-10T08:10:15;101658.19;;;19.54;36.62
38616;BME280;24370;51.986;4.666;2023-04-10T08:12:41;101663.06;;;19.41;37.13
38616;BME280;24370;51.986;4.666;2023-04-10T08:15:06;101654.69;;;19.54;36.30
38616;BME280;24370;51.986;4.666;2023-04-10T08:17:32;101649.88;;;20.14;35.63
38616;BME280;24370;51.986;4.666;2023-04-10T08:19:57;101656.44;;;19.80;36.52
38616;BME280;24370;51.986;4.666;2023-04-10T08:22:22;101650.56;;;19.70;36.50
38616;BME280;24370;51.986;4.666;2023-04-10T08:24:48;101646.63;;;20.07;35.92
38616;BME280;24370;51.986;4.666;2023-04-10T08:27:13;101659.97;;;19.54;36.87
38616;BME280;24370;51.986;4.666;2023-04-10T08:29:40;101651.03;;;20.30;35.39
38616;BME280;24370;51.986;4.666;2023-04-10T08:32:06;101653.28;;;19.94;35.73
38616;BME280;24370;51.986;4.666;2023-04-10T08:34:31;101643.94;;;20.55;35.41
38616;BME280;24370;51.986;4.666;2023-04-10T08:36:56;101643.28;;;19.75;36.20
38616;BME280;24370;51.986;4.666;2023-04-10T08:39:22;101640.53;;;20.75;34.79
38616;BME280;24370;51.986;4.666;2023-04-10T08:41:47;101630.88;;;20.72;34.56
38616;BME280;24370;51.986;4.666;2023-04-10T08:44:13;101623.72;;;20.50;35.18
38616;BME280;24370;51.986;4.666;2023-04-10T08:46:42;101633.81;;;20.64;34.86
38616;BME280;24370;51.986;4.666;2023-04-10T08:49:31;101624.78;;;20.46;35.47
38616;BME280;24370;51.986;4.666;2023-04-10T08:51:56;101619.78;;;20.15;35.52
38616;BME280;24370;51.986;4.666;2023-04-10T08:54:33;101610.47;;;19.27;37.15
38616;BME280;24370;51.986;4.666;2023-04-10T08:57:00;101609.00;;;19.71;36.07
38616;BME280;24370;51.986;4.666;2023-04-10T08:59:29;101606.56;;;19.90;36.06
38616;BME280;24370;51.986;4.666;2023-04-10T09:01:55;101598.97;;;20.28;35.67
38616;BME280;24370;51.986;4.666;2023-04-10T09:04:22;101607.38;;;19.41;36.45
38616;BME280;24370;51.986;4.666;2023-04-10T09:06:48;101596.13;;;20.32;35.51
38616;BME280;24370;51.986;4.666;2023-04-10T09:09:13;101594.81;;;20.89;34.58
38616;BME280;24370;51.986;4.666;2023-04-10T09:14:25;101577.94;;;20.22;34.90
38616;BME280;24370;51.986;4.666;2023-04-10T09:16:52;101584.88;;;20.48;35.39
38616;BME280;24370;51.986;4.666;2023-04-10T09:19:32;101580.72;;;19.70;35.68
38616;BME280;24370;51.986;4.666;2023-04-10T09:21:57;101585.00;;;20.45;35.04
38616;BME280;24370;51.986;4.666;2023-04-10T09:24:23;101571.69;;;20.68;34.55
38616;BME280;24370;51.986;4.666;2023-04-10T09:26:49;101569.06;;;20.67;35.15
38616;BME280;24370;51.986;4.666;2023-04-10T09:29:14;101576.16;;;21.31;34.11
38616;BME280;24370;51.986;4.666;2023-04-10T09:31:43;101564.94;;;21.25;34.16
38616;BME280;24370;51.986;4.666;2023-04-10T09:34:13;101548.38;;;21.59;33.72
38616;BME280;24370;51.986;4.666;2023-04-10T09:36:42;101543.38;;;21.72;33.58
38616;BME280;24370;51.986;4.666;2023-04-10T09:39:10;101550.75;;;19.93;35.31
38616;BME280;24370;51.986;4.666;2023-04-10T09:41:49;101554.13;;;20.42;34.96
38616;BME280;24370;51.986;4.666;2023-04-10T09:44:17;101543.56;;;20.19;34.79
38616;BME280;24370;51.986;4.666;2023-04-10T09:46:44;101537.66;;;20.34;35.14
38616;BME280;24370;51.986;4.666;2023-04-10T09:49:10;101545.59;;;19.39;36.54
38616;BME280;24370;51.986;4.666;2023-04-10T09:51:35;101537.94;;;20.93;34.63
38616;BME280;24370;51.986;4.666;2023-04-10T09:54:02;101550.56;;;21.08;34.86
38616;BME280;24370;51.986;4.666;2023-04-10T09:56:33;101536.72;;;20.35;35.66
38616;BME280;24370;51.986;4.666;2023-04-10T09:59:01;101525.75;;;19.75;36.68
38616;BME280;24370;51.986;4.666;2023-04-10T10:01:29;101522.53;;;19.90;36.72
38616;BME280;24370;51.986;4.666;2023-04-10T10:04:01;101514.78;;;20.74;35.82
38616;BME280;24370;51.986;4.666;2023-04-10T10:06:29;101523.88;;;20.24;36.22
38616;BME280;24370;51.986;4.666;2023-04-10T10:08:59;101522.63;;;20.55;35.69
38616;BME280;24370;51.986;4.666;2023-04-10T10:11:26;101510.88;;;20.40;35.52
38616;BME280;24370;51.986;4.666;2023-04-10T10:13:52;101509.38;;;20.33;35.55
38616;BME280;24370;51.986;4.666;2023-04-10T10:21:35;101484.97;;;22.07;32.72
38616;BME280;24370;51.986;4.666;2023-04-10T10:24:07;101484.88;;;21.12;34.71
38616;BME280;24370;51.986;4.666;2023-04-10T10:26:34;101484.00;;;23.16;32.26
38616;BME280;24370;51.986;4.666;2023-04-10T10:29:04;101481.38;;;23.32;31.53
38616;BME280;24370;51.986;4.666;2023-04-10T10:31:32;101479.63;;;23.31;31.83
38616;BME280;24370;51.986;4.666;2023-04-10T10:33:59;101481.66;;;21.83;33.32
38616;BME280;24370;51.986;4.666;2023-04-10T10:36:29;101475.28;;;22.78;32.49
38616;BME280;24370;51.986;4.666;2023-04-10T10:41:46;101446.22;;;22.91;31.80
38616;BME280;24370;51.986;4.666;2023-04-10T10:44:40;101439.78;;;22.06;33.73
38616;BME280;24370;51.986;4.666;2023-04-10T10:47:14;101438.78;;;22.45;33.42
38616;BME280;24370;51.986;4.666;2023-04-10T10:49:55;101422.97;;;23.44;31.52
38616;BME280;24370;51.986;4.666;2023-04-10T10:58:07;101404.66;;;23.04;32.39
38616;BME280;24370;51.986;4.666;2023-04-10T11:06:01;101394.66;;;24.05;30.18
38616;BME280;24370;51.986;4.666;2023-04-10T11:21:27;101371.44;;;24.21;30.92
38616;BME280;24370;51.986;4.666;2023-04-10T11:31:46;101350.06;;;23.11;33.06
38616;BME280;24370;51.986;4.666;2023-04-10T11:34:18;101339.69;;;22.89;33.65
38616;BME280;24370;51.986;4.666;2023-04-10T11:36:43;101335.47;;;23.34;32.79
38616;BME280;24370;51.986;4.666;2023-04-10T11:39:11;101337.50;;;23.13;32.31
38616;BME280;24370;51.986;4.666;2023-04-10T11:41:39;101325.66;;;22.85;33.24
38616;BME280;24370;51.986;4.666;2023-04-10T11:44:14;101326.53;;;22.17;33.77
38616;BME280;24370;51.986;4.666;2023-04-10T11:46:44;101317.06;;;23.62;32.63
38616;BME280;24370;51.986;4.666;2023-04-10T11:49:26;101313.25;;;21.81;34.18
38616;BME280;24370;51.986;4.666;2023-04-10T11:51:52;101306.38;;;21.77;34.16
38616;BME280;24370;51.986;4.666;2023-04-10T11:54:20;101298.47;;;22.63;33.71
38616;BME280;24370;51.986;4.666;2023-04-10T11:57:03;101296.31;;;22.36;34.27
38616;BME280;24370;51.986;4.666;2023-04-10T11:59:31;101289.41;;;22.49;33.85
38616;BME280;24370;51.986;4.666;2023-04-10T12:02:07;101289.22;;;22.52;34.07
38616;BME280;24370;51.986;4.666;2023-04-10T12:04:33;101287.47;;;23.18;33.15
38616;BME280;24370;51.986;4.666;2023-04-10T12:06:59;101282.97;;;22.18;34.28
38616;BME280;24370;51.986;4.666;2023-04-10T12:09:25;101274.22;;;21.45;35.43
38616;BME280;24370;51.986;4.666;2023-04-10T12:11:55;101273.66;;;21.57;35.32
38616;BME280;24370;51.986;4.666;2023-04-10T12:14:22;101272.03;;;22.07;34.95
38616;BME280;24370;51.986;4.666;2023-04-10T12:16:48;101266.88;;;22.04;35.49
38616;BME280;24370;51.986;4.666;2023-04-10T12:19:14;101266.56;;;21.93;35.51
38616;BME280;24370;51.986;4.666;2023-04-10T12:21:42;101275.94;;;22.00;35.23
38616;BME280;24370;51.986;4.666;2023-04-10T12:24:08;101270.94;;;21.94;35.77
38616;BME280;24370;51.986;4.666;2023-04-10T12:26:34;101263.56;;;21.64;36.06
38616;BME280;24370;51.986;4.666;2023-04-10T12:28:59;101267.00;;;21.66;37.13
38616;BME280;24370;51.986;4.666;2023-04-10T12:31:33;101269.53;;;22.22;36.42
38616;BME280;24370;51.986;4.666;2023-04-10T12:34:00;101263.91;;;21.00;38.82
38616;BME280;24370;51.986;4.666;2023-04-10T12:36:27;101272.88;;;20.79;38.98
38616;BME280;24370;51.986;4.666;2023-04-10T12:38:55;101259.25;;;20.66;39.39
38616;BME280;24370;51.986;4.666;2023-04-10T12:41:25;101259.81;;;20.54;40.30
38616;BME280;24370;51.986;4.666;2023-04-10T12:43:52;101254.16;;;20.61;40.35
38616;BME280;24370;51.986;4.666;2023-04-10T12:46:26;101256.16;;;21.15;39.50
38616;BME280;24370;51.986;4.666;2023-04-10T12:48:52;101247.09;;;21.00;40.34
38616;BME280;24370;51.986;4.666;2023-04-10T12:51:17;101242.22;;;20.91;40.50
38616;BME280;24370;51.986;4.666;2023-04-10T12:53:46;101240.44;;;20.51;42.29
38616;BME280;24370;51.986;4.666;2023-04-10T12:56:12;101241.00;;;20.39;43.44
38616;BME280;24370;51.986;4.666;2023-04-10T12:58:38;101238.47;;;20.57;43.26
38616;BME280;24370;51.986;4.666;2023-04-10T13:01:05;101230.59;;;19.50;45.53
38616;BME280;24370;51.986;4.666;2023-04-10T13:03:37;101215.81;;;20.68;44.15
38616;BME280;24370;51.986;4.666;2023-04-10T13:06:06;101202.81;;;20.02;45.73
38616;BME280;24370;51.986;4.666;2023-04-10T13:08:35;101194.66;;;20.46;45.86
38616;BME280;24370;51.986;4.666;2023-04-10T13:11:01;101198.53;;;19.57;47.21
38616;BME280;24370;51.986;4.666;2023-04-10T13:13:31;101185.81;;;19.65;47.67
38616;BME280;24370;51.986;4.666;2023-04-10T13:15:57;101182.38;;;19.83;47.07
38616;BME280;24370;51.986;4.666;2023-04-10T13:18:23;101174.69;;;19.77;48.33
38616;BME280;24370;51.986;4.666;2023-04-10T13:20:49;101181.44;;;19.64;48.28
38616;BME280;24370;51.986;4.666;2023-04-10T13:23:15;101166.19;;;19.69;50.36
38616;BME280;24370;51.986;4.666;2023-04-10T13:25:40;101163.03;;;19.18;49.79
38616;BME280;24370;51.986;4.666;2023-04-10T13:28:07;101162.81;;;19.23;50.56
38616;BME280;24370;51.986;4.666;2023-04-10T13:30:36;101154.59;;;19.72;49.70
38616;BME280;24370;51.986;4.666;2023-04-10T13:33:02;101154.19;;;19.60;49.68
38616;BME280;24370;51.986;4.666;2023-04-10T13:35:27;101150.53;;;19.63;50.14
38616;BME280;24370;51.986;4.666;2023-04-10T13:37:52;101158.09;;;19.52;50.03
38616;BME280;24370;51.986;4.666;2023-04-10T13:40:19;101161.09;;;19.85;50.13